Terminal Aerodrome Forecast
Issued by NWS

Home | Current Version | Previous Version | Text Only | Print | Product List | Glossary On
Versions: 1 2 3 4 5 6 7 8 9 10 11 12 13 14 15 16 17 18
091
FTUS45 KRIW 211532 AAA
TAFCPR
TAF AMD
KCPR 211532Z 2116/2212 23013KT P6SM SCT120
     FM211700 02008KT P6SM SCT120
     FM220100 VRB08KT P6SM VCSH SCT070 BKN100
     FM220400 03007KT P6SM SCT100=

USA.gov is the U.S. government's official web portal to all federal, state and local government web resources and services.